Terminal Aerodrome Forecast
Issued by NWS

Home | Current Version | Previous Version | Text Only | Print | Product List | Glossary On
Versions: 1 2 3 4 5 6 7 8 9 10 11 12 13 14 15 16 17 18 19 20 21 22
000
FTUS43 KDVN 012000 AAA
TAFCID
TAF AMD
KCID 012021Z 0120/0218 18012G18KT P6SM BKN015 BKN100
      TEMPO 0120/0124 SCT015
     FM020500 10004KT 4SM BR SCT005 OVC025
     FM020900 08004KT 2SM BR OVC005
     FM021500 08007KT 5SM BR SCT005 BKN010=

USA.gov is the U.S. government's official web portal to all federal, state and local government web resources and services.